sensor_id;sensor_type;location;lat;lon;timestamp;P1;durP1;ratioP1;P2;durP2;ratioP2
10005;SDS011;5042;42.626;23.382;2023-12-20T00:01:01;12.60;;;10.07;;
10005;SDS011;5042;42.626;23.382;2023-12-20T00:03:28;14.80;;;10.57;;
10005;SDS011;5042;42.626;23.382;2023-12-20T00:05:55;13.77;;;10.27;;
10005;SDS011;5042;42.626;23.382;2023-12-20T00:08:22;15.07;;;11.37;;
10005;SDS011;5042;42.626;23.382;2023-12-20T00:10:49;13.77;;;10.60;;
10005;SDS011;5042;42.626;23.382;2023-12-20T00:13:16;13.07;;;11.07;;
10005;SDS011;5042;42.626;23.382;2023-12-20T00:15:44;14.47;;;11.20;;
10005;SDS011;5042;42.626;23.382;2023-12-20T00:18:11;15.27;;;10.90;;
10005;SDS011;5042;42.626;23.382;2023-12-20T00:20:38;13.43;;;10.27;;
10005;SDS011;5042;42.626;23.382;2023-12-20T00:23:05;15.00;;;10.90;;
10005;SDS011;5042;42.626;23.382;2023-12-20T00:25:33;16.73;;;10.70;;
10005;SDS011;5042;42.626;23.382;2023-12-20T00:28:00;12.83;;;9.17;;
10005;SDS011;5042;42.626;23.382;2023-12-20T00:30:27;13.90;;;10.13;;
10005;SDS011;5042;42.626;23.382;2023-12-20T00:32:56;12.13;;;9.33;;
10005;SDS011;5042;42.626;23.382;2023-12-20T00:35:23;12.97;;;9.60;;
10005;SDS011;5042;42.626;23.382;2023-12-20T00:37:50;11.23;;;8.83;;
10005;SDS011;5042;42.626;23.382;2023-12-20T00:40:17;11.97;;;9.27;;
10005;SDS011;5042;42.626;23.382;2023-12-20T00:42:44;10.90;;;9.23;;
10005;SDS011;5042;42.626;23.382;2023-12-20T00:45:12;10.23;;;8.00;;
10005;SDS011;5042;42.626;23.382;2023-12-20T00:47:39;9.93;;;8.00;;
10005;SDS011;5042;42.626;23.382;2023-12-20T00:50:08;10.67;;;7.90;;
10005;SDS011;5042;42.626;23.382;2023-12-20T00:52:36;10.23;;;7.93;;
10005;SDS011;5042;42.626;23.382;2023-12-20T00:55:03;12.00;;;7.83;;
10005;SDS011;5042;42.626;23.382;2023-12-20T00:57:30;11.03;;;7.70;;
10005;SDS011;5042;42.626;23.382;2023-12-20T00:59:57;8.70;;;7.13;;
10005;SDS011;5042;42.626;23.382;2023-12-20T01:02:24;8.23;;;7.00;;
10005;SDS011;5042;42.626;23.382;2023-12-20T01:04:51;9.00;;;7.27;;
10005;SDS011;5042;42.626;23.382;2023-12-20T01:07:20;9.50;;;6.87;;
10005;SDS011;5042;42.626;23.382;2023-12-20T01:09:46;10.37;;;7.37;;
10005;SDS011;5042;42.626;23.382;2023-12-20T01:12:13;10.57;;;8.00;;
10005;SDS011;5042;42.626;23.382;2023-12-20T01:14:41;9.53;;;7.90;;
10005;SDS011;5042;42.626;23.382;2023-12-20T01:17:08;10.27;;;7.57;;
10005;SDS011;5042;42.626;23.382;2023-12-20T01:19:35;9.23;;;7.40;;
10005;SDS011;5042;42.626;23.382;2023-12-20T01:22:02;9.93;;;7.83;;
10005;SDS011;5042;42.626;23.382;2023-12-20T01:24:30;9.57;;;7.87;;
10005;SDS011;5042;42.626;23.382;2023-12-20T01:26:57;9.77;;;8.43;;
10005;SDS011;5042;42.626;23.382;2023-12-20T01:29:24;10.80;;;8.50;;
10005;SDS011;5042;42.626;23.382;2023-12-20T01:31:51;10.17;;;8.17;;
10005;SDS011;5042;42.626;23.382;2023-12-20T01:34:18;10.23;;;8.23;;
10005;SDS011;5042;42.626;23.382;2023-12-20T01:36:45;10.33;;;8.33;;
10005;SDS011;5042;42.626;23.382;2023-12-20T01:39:12;12.10;;;8.67;;
10005;SDS011;5042;42.626;23.382;2023-12-20T01:41:40;11.93;;;9.50;;
10005;SDS011;5042;42.626;23.382;2023-12-20T01:44:07;12.23;;;8.57;;
10005;SDS011;5042;42.626;23.382;2023-12-20T01:46:34;10.70;;;8.00;;
10005;SDS011;5042;42.626;23.382;2023-12-20T01:49:01;11.13;;;8.70;;
10005;SDS011;5042;42.626;23.382;2023-12-20T01:51:28;12.57;;;8.87;;
10005;SDS011;5042;42.626;23.382;2023-12-20T01:53:56;11.90;;;8.73;;
10005;SDS011;5042;42.626;23.382;2023-12-20T01:56:24;12.87;;;8.67;;
10005;SDS011;5042;42.626;23.382;2023-12-20T01:58:53;11.57;;;9.37;;
10005;SDS011;5042;42.626;23.382;2023-12-20T02:01:20;12.23;;;8.47;;
10005;SDS011;5042;42.626;23.382;2023-12-20T02:03:47;9.83;;;8.50;;
10005;SDS011;5042;42.626;23.382;2023-12-20T02:06:14;11.07;;;8.60;;
10005;SDS011;5042;42.626;23.382;2023-12-20T02:08:42;11.27;;;8.60;;
10005;SDS011;5042;42.626;23.382;2023-12-20T02:11:09;10.57;;;8.80;;
10005;SDS011;5042;42.626;23.382;2023-12-20T02:13:36;10.93;;;8.27;;
10005;SDS011;5042;42.626;23.382;2023-12-20T02:16:05;9.27;;;8.03;;
10005;SDS011;5042;42.626;23.382;2023-12-20T02:18:32;10.63;;;8.53;;
10005;SDS011;5042;42.626;23.382;2023-12-20T02:20:59;10.17;;;8.03;;
10005;SDS011;5042;42.626;23.382;2023-12-20T02:23:27;9.97;;;8.10;;
10005;SDS011;5042;42.626;23.382;2023-12-20T02:25:54;13.03;;;8.50;;
10005;SDS011;5042;42.626;23.382;2023-12-20T02:28:21;12.93;;;8.70;;
10005;SDS011;5042;42.626;23.382;2023-12-20T02:30:48;11.03;;;8.13;;
10005;SDS011;5042;42.626;23.382;2023-12-20T02:33:15;11.83;;;8.43;;
10005;SDS011;5042;42.626;23.382;2023-12-20T02:35:43;12.23;;;8.93;;
10005;SDS011;5042;42.626;23.382;2023-12-20T02:38:10;13.03;;;9.33;;
10005;SDS011;5042;42.626;23.382;2023-12-20T02:40:38;11.77;;;9.57;;
10005;SDS011;5042;42.626;23.382;2023-12-20T02:43:05;12.10;;;9.20;;
10005;SDS011;5042;42.626;23.382;2023-12-20T02:45:32;14.37;;;9.73;;
10005;SDS011;5042;42.626;23.382;2023-12-20T02:47:59;10.80;;;8.90;;
10005;SDS011;5042;42.626;23.382;2023-12-20T02:50:25;11.50;;;8.93;;
10005;SDS011;5042;42.626;23.382;2023-12-20T02:52:52;11.67;;;9.33;;
10005;SDS011;5042;42.626;23.382;2023-12-20T02:55:19;12.53;;;9.60;;
10005;SDS011;5042;42.626;23.382;2023-12-20T02:57:48;11.17;;;9.23;;
10005;SDS011;5042;42.626;23.382;2023-12-20T03:00:15;11.97;;;9.80;;
10005;SDS011;5042;42.626;23.382;2023-12-20T03:02:42;14.00;;;9.67;;
10005;SDS011;5042;42.626;23.382;2023-12-20T03:05:08;13.20;;;10.10;;
10005;SDS011;5042;42.626;23.382;2023-12-20T03:07:36;12.43;;;9.73;;
10005;SDS011;5042;42.626;23.382;2023-12-20T03:10:03;13.77;;;10.00;;
10005;SDS011;5042;42.626;23.382;2023-12-20T03:12:31;15.57;;;10.43;;
10005;SDS011;5042;42.626;23.382;2023-12-20T03:14:59;13.30;;;10.30;;
10005;SDS011;5042;42.626;23.382;2023-12-20T03:17:26;14.37;;;10.50;;
10005;SDS011;5042;42.626;23.382;2023-12-20T03:19:53;14.57;;;10.03;;
10005;SDS011;5042;42.626;23.382;2023-12-20T03:22:20;11.83;;;9.63;;
10005;SDS011;5042;42.626;23.382;2023-12-20T03:24:47;10.23;;;8.33;;
10005;SDS011;5042;42.626;23.382;2023-12-20T03:27:14;12.20;;;8.97;;
10005;SDS011;5042;42.626;23.382;2023-12-20T03:29:41;10.37;;;8.10;;
10005;SDS011;5042;42.626;23.382;2023-12-20T03:32:09;9.30;;;7.70;;
10005;SDS011;5042;42.626;23.382;2023-12-20T03:34:36;12.40;;;8.60;;
10005;SDS011;5042;42.626;23.382;2023-12-20T03:37:03;11.77;;;8.00;;
10005;SDS011;5042;42.626;23.382;2023-12-20T03:39:30;10.47;;;8.10;;
10005;SDS011;5042;42.626;23.382;2023-12-20T03:41:56;9.37;;;7.47;;
10005;SDS011;5042;42.626;23.382;2023-12-20T03:44:23;10.97;;;8.17;;
10005;SDS011;5042;42.626;23.382;2023-12-20T03:46:50;11.97;;;8.30;;
10005;SDS011;5042;42.626;23.382;2023-12-20T03:49:18;9.60;;;7.57;;
10005;SDS011;5042;42.626;23.382;2023-12-20T03:51:45;9.90;;;7.67;;
10005;SDS011;5042;42.626;23.382;2023-12-20T03:54:12;11.73;;;8.23;;
10005;SDS011;5042;42.626;23.382;2023-12-20T03:56:39;12.53;;;8.57;;
10005;SDS011;5042;42.626;23.382;2023-12-20T03:59:06;11.00;;;8.70;;
10005;SDS011;5042;42.626;23.382;2023-12-20T04:01:33;11.53;;;8.70;;
10005;SDS011;5042;42.626;23.382;2023-12-20T04:04:01;10.73;;;8.60;;
10005;SDS011;5042;42.626;23.382;2023-12-20T04:06:29;13.43;;;8.97;;
10005;SDS011;5042;42.626;23.382;2023-12-20T04:08:56;10.63;;;8.97;;
10005;SDS011;5042;42.626;23.382;2023-12-20T04:11:23;14.60;;;10.50;;
10005;SDS011;5042;42.626;23.382;2023-12-20T04:13:50;17.50;;;12.07;;
10005;SDS011;5042;42.626;23.382;2023-12-20T04:16:17;21.30;;;15.70;;
10005;SDS011;5042;42.626;23.382;2023-12-20T04:18:44;16.77;;;11.87;;
10005;SDS011;5042;42.626;23.382;2023-12-20T04:21:10;17.87;;;13.43;;
10005;SDS011;5042;42.626;23.382;2023-12-20T04:23:39;17.70;;;13.00;;
10005;SDS011;5042;42.626;23.382;2023-12-20T04:26:06;14.43;;;10.17;;
10005;SDS011;5042;42.626;23.382;2023-12-20T04:28:32;14.47;;;10.30;;
10005;SDS011;5042;42.626;23.382;2023-12-20T04:30:59;11.10;;;9.27;;
10005;SDS011;5042;42.626;23.382;2023-12-20T04:33:26;11.97;;;9.37;;
10005;SDS011;5042;42.626;23.382;2023-12-20T04:35:53;12.53;;;9.10;;
10005;SDS011;5042;42.626;23.382;2023-12-20T04:38:20;12.60;;;8.20;;
10005;SDS011;5042;42.626;23.382;2023-12-20T04:40:49;12.80;;;8.93;;
10005;SDS011;5042;42.626;23.382;2023-12-20T04:43:15;10.57;;;9.43;;
10005;SDS011;5042;42.626;23.382;2023-12-20T04:45:42;12.67;;;8.80;;
10005;SDS011;5042;42.626;23.382;2023-12-20T04:48:09;10.80;;;8.50;;
10005;SDS011;5042;42.626;23.382;2023-12-20T04:50:37;11.47;;;8.73;;
10005;SDS011;5042;42.626;23.382;2023-12-20T04:53:03;11.40;;;8.60;;
10005;SDS011;5042;42.626;23.382;2023-12-20T04:55:30;9.57;;;8.53;;
10005;SDS011;5042;42.626;23.382;2023-12-20T04:57:59;11.10;;;8.10;;
10005;SDS011;5042;42.626;23.382;2023-12-20T05:00:25;11.07;;;8.90;;
10005;SDS011;5042;42.626;23.382;2023-12-20T05:02:52;10.83;;;8.80;;
10005;SDS011;5042;42.626;23.382;2023-12-20T05:05:20;11.20;;;8.27;;
10005;SDS011;5042;42.626;23.382;2023-12-20T05:07:47;10.87;;;7.77;;
10005;SDS011;5042;42.626;23.382;2023-12-20T05:10:14;10.77;;;8.27;;
10005;SDS011;5042;42.626;23.382;2023-12-20T05:12:41;10.73;;;8.13;;
10005;SDS011;5042;42.626;23.382;2023-12-20T05:15:09;10.67;;;9.13;;
10005;SDS011;5042;42.626;23.382;2023-12-20T05:17:36;27.20;;;20.70;;
10005;SDS011;5042;42.626;23.382;2023-12-20T05:20:03;26.70;;;18.50;;
10005;SDS011;5042;42.626;23.382;2023-12-20T05:22:31;30.40;;;22.07;;
10005;SDS011;5042;42.626;23.382;2023-12-20T05:24:58;31.57;;;22.47;;
10005;SDS011;5042;42.626;23.382;2023-12-20T05:27:25;32.07;;;22.03;;
10005;SDS011;5042;42.626;23.382;2023-12-20T05:29:52;37.97;;;24.93;;
10005;SDS011;5042;42.626;23.382;2023-12-20T05:32:24;40.03;;;28.17;;
10005;SDS011;5042;42.626;23.382;2023-12-20T05:34:51;37.83;;;26.40;;
10005;SDS011;5042;42.626;23.382;2023-12-20T05:37:18;35.57;;;24.87;;
10005;SDS011;5042;42.626;23.382;2023-12-20T05:39:45;35.00;;;22.23;;
10005;SDS011;5042;42.626;23.382;2023-12-20T05:42:12;33.10;;;23.03;;
10005;SDS011;5042;42.626;23.382;2023-12-20T05:44:39;33.30;;;23.53;;
10005;SDS011;5042;42.626;23.382;2023-12-20T05:47:06;39.47;;;23.00;;
10005;SDS011;5042;42.626;23.382;2023-12-20T05:49:34;36.50;;;23.73;;
10005;SDS011;5042;42.626;23.382;2023-12-20T05:52:01;36.10;;;23.57;;
10005;SDS011;5042;42.626;23.382;2023-12-20T05:54:29;34.03;;;21.67;;
10005;SDS011;5042;42.626;23.382;2023-12-20T05:56:56;41.20;;;23.90;;
10005;SDS011;5042;42.626;23.382;2023-12-20T05:59:23;40.77;;;26.23;;
10005;SDS011;5042;42.626;23.382;2023-12-20T06:01:50;171.27;;;36.93;;
10005;SDS011;5042;42.626;23.382;2023-12-20T06:04:17;43.17;;;25.20;;
10005;SDS011;5042;42.626;23.382;2023-12-20T06:06:45;42.30;;;25.93;;
10005;SDS011;5042;42.626;23.382;2023-12-20T06:09:12;40.07;;;25.00;;
10005;SDS011;5042;42.626;23.382;2023-12-20T06:11:40;40.03;;;25.07;;
10005;SDS011;5042;42.626;23.382;2023-12-20T06:14:07;46.27;;;25.93;;
10005;SDS011;5042;42.626;23.382;2023-12-20T06:16:34;49.53;;;26.80;;
10005;SDS011;5042;42.626;23.382;2023-12-20T06:19:01;45.47;;;25.87;;
10005;SDS011;5042;42.626;23.382;2023-12-20T06:21:27;50.30;;;26.20;;
10005;SDS011;5042;42.626;23.382;2023-12-20T06:23:56;49.93;;;28.43;;
10005;SDS011;5042;42.626;23.382;2023-12-20T06:26:23;48.17;;;26.77;;
10005;SDS011;5042;42.626;23.382;2023-12-20T06:28:50;46.27;;;26.37;;
10005;SDS011;5042;42.626;23.382;2023-12-20T06:31:16;48.80;;;27.00;;
10005;SDS011;5042;42.626;23.382;2023-12-20T06:33:43;59.67;;;28.07;;
10005;SDS011;5042;42.626;23.382;2023-12-20T06:36:11;54.00;;;28.67;;
10005;SDS011;5042;42.626;23.382;2023-12-20T06:38:39;46.47;;;26.53;;
10005;SDS011;5042;42.626;23.382;2023-12-20T06:41:08;50.90;;;27.53;;
10005;SDS011;5042;42.626;23.382;2023-12-20T06:43:38;157.33;;;38.23;;
10005;SDS011;5042;42.626;23.382;2023-12-20T06:46:06;41.57;;;25.73;;
10005;SDS011;5042;42.626;23.382;2023-12-20T06:48:33;39.80;;;25.67;;
10005;SDS011;5042;42.626;23.382;2023-12-20T06:50:59;40.20;;;26.13;;
10005;SDS011;5042;42.626;23.382;2023-12-20T06:53:27;46.63;;;28.17;;
10005;SDS011;5042;42.626;23.382;2023-12-20T06:55:54;48.20;;;27.97;;
10005;SDS011;5042;42.626;23.382;2023-12-20T06:58:23;49.60;;;28.37;;
10005;SDS011;5042;42.626;23.382;2023-12-20T07:00:50;41.60;;;26.43;;
10005;SDS011;5042;42.626;23.382;2023-12-20T07:03:17;50.03;;;29.60;;
10005;SDS011;5042;42.626;23.382;2023-12-20T07:05:44;43.17;;;26.10;;
10005;SDS011;5042;42.626;23.382;2023-12-20T07:08:11;47.23;;;28.73;;
10005;SDS011;5042;42.626;23.382;2023-12-20T07:10:39;39.93;;;24.27;;
10005;SDS011;5042;42.626;23.382;2023-12-20T07:13:06;33.53;;;22.40;;
10005;SDS011;5042;42.626;23.382;2023-12-20T07:15:35;35.50;;;23.70;;
10005;SDS011;5042;42.626;23.382;2023-12-20T07:18:02;34.17;;;23.83;;
10005;SDS011;5042;42.626;23.382;2023-12-20T07:20:30;38.80;;;25.40;;
10005;SDS011;5042;42.626;23.382;2023-12-20T07:22:57;33.40;;;22.13;;
10005;SDS011;5042;42.626;23.382;2023-12-20T07:25:24;30.60;;;19.40;;
10005;SDS011;5042;42.626;23.382;2023-12-20T07:27:51;29.40;;;19.77;;
10005;SDS011;5042;42.626;23.382;2023-12-20T07:30:18;31.17;;;21.20;;
10005;SDS011;5042;42.626;23.382;2023-12-20T07:32:47;36.60;;;24.07;;
10005;SDS011;5042;42.626;23.382;2023-12-20T07:35:15;35.53;;;22.47;;
10005;SDS011;5042;42.626;23.382;2023-12-20T07:37:42;39.17;;;24.80;;
10005;SDS011;5042;42.626;23.382;2023-12-20T07:40:09;43.27;;;26.67;;
10005;SDS011;5042;42.626;23.382;2023-12-20T07:42:36;39.43;;;26.07;;
10005;SDS011;5042;42.626;23.382;2023-12-20T07:45:04;40.27;;;24.93;;
10005;SDS011;5042;42.626;23.382;2023-12-20T07:47:32;38.87;;;25.00;;
10005;SDS011;5042;42.626;23.382;2023-12-20T07:50:00;38.83;;;25.37;;
10005;SDS011;5042;42.626;23.382;2023-12-20T07:52:28;43.47;;;28.20;;
10005;SDS011;5042;42.626;23.382;2023-12-20T07:54:56;49.93;;;29.27;;
10005;SDS011;5042;42.626;23.382;2023-12-20T07:57:23;57.53;;;34.80;;
10005;SDS011;5042;42.626;23.382;2023-12-20T07:59:50;52.53;;;32.23;;
10005;SDS011;5042;42.626;23.382;2023-12-20T08:02:16;70.23;;;37.60;;
10005;SDS011;5042;42.626;23.382;2023-12-20T08:04:43;74.43;;;38.23;;
10005;SDS011;5042;42.626;23.382;2023-12-20T08:07:12;68.07;;;35.67;;
10005;SDS011;5042;42.626;23.382;2023-12-20T08:09:39;72.43;;;37.27;;
10005;SDS011;5042;42.626;23.382;2023-12-20T08:12:07;81.20;;;41.60;;
10005;SDS011;5042;42.626;23.382;2023-12-20T08:14:34;75.97;;;39.97;;
10005;SDS011;5042;42.626;23.382;2023-12-20T08:17:01;73.73;;;38.87;;
10005;SDS011;5042;42.626;23.382;2023-12-20T08:19:28;79.20;;;40.40;;
10005;SDS011;5042;42.626;23.382;2023-12-20T08:21:55;84.77;;;43.90;;
10005;SDS011;5042;42.626;23.382;2023-12-20T08:24:23;79.73;;;42.40;;
10005;SDS011;5042;42.626;23.382;2023-12-20T08:26:50;74.53;;;43.00;;
10005;SDS011;5042;42.626;23.382;2023-12-20T08:29:17;84.00;;;45.07;;
10005;SDS011;5042;42.626;23.382;2023-12-20T08:31:44;75.17;;;42.83;;
10005;SDS011;5042;42.626;23.382;2023-12-20T08:34:11;85.23;;;44.30;;
10005;SDS011;5042;42.626;23.382;2023-12-20T08:36:40;84.93;;;47.73;;
10005;SDS011;5042;42.626;23.382;2023-12-20T08:39:07;109.93;;;50.30;;
10005;SDS011;5042;42.626;23.382;2023-12-20T08:41:35;93.30;;;46.47;;
10005;SDS011;5042;42.626;23.382;2023-12-20T08:44:02;90.67;;;45.60;;
10005;SDS011;5042;42.626;23.382;2023-12-20T08:46:30;83.30;;;42.43;;
10005;SDS011;5042;42.626;23.382;2023-12-20T08:48:56;86.43;;;44.27;;
10005;SDS011;5042;42.626;23.382;2023-12-20T08:51:23;77.93;;;41.80;;
10005;SDS011;5042;42.626;23.382;2023-12-20T08:53:50;70.13;;;38.93;;
10005;SDS011;5042;42.626;23.382;2023-12-20T08:56:17;65.73;;;37.03;;
10005;SDS011;5042;42.626;23.382;2023-12-20T08:58:46;83.03;;;40.97;;
10005;SDS011;5042;42.626;23.382;2023-12-20T09:01:13;67.60;;;36.47;;
10005;SDS011;5042;42.626;23.382;2023-12-20T09:03:40;72.87;;;36.83;;
10005;SDS011;5042;42.626;23.382;2023-12-20T09:06:07;64.03;;;35.97;;
10005;SDS011;5042;42.626;23.382;2023-12-20T09:08:34;67.37;;;35.97;;
10005;SDS011;5042;42.626;23.382;2023-12-20T09:11:01;63.57;;;34.40;;
10005;SDS011;5042;42.626;23.382;2023-12-20T09:13:28;70.73;;;36.73;;
10005;SDS011;5042;42.626;23.382;2023-12-20T09:15:58;71.97;;;37.60;;
10005;SDS011;5042;42.626;23.382;2023-12-20T09:18:25;70.50;;;34.43;;
10005;SDS011;5042;42.626;23.382;2023-12-20T09:20:52;73.83;;;37.47;;
10005;SDS011;5042;42.626;23.382;2023-12-20T09:23:19;64.37;;;32.80;;
10005;SDS011;5042;42.626;23.382;2023-12-20T09:25:46;61.23;;;35.23;;
10005;SDS011;5042;42.626;23.382;2023-12-20T09:28:13;73.47;;;39.00;;
10005;SDS011;5042;42.626;23.382;2023-12-20T09:30:40;92.83;;;41.80;;
10005;SDS011;5042;42.626;23.382;2023-12-20T09:33:08;86.03;;;42.57;;
10005;SDS011;5042;42.626;23.382;2023-12-20T09:35:35;86.17;;;43.30;;
10005;SDS011;5042;42.626;23.382;2023-12-20T09:38:02;89.93;;;42.73;;
10005;SDS011;5042;42.626;23.382;2023-12-20T09:40:29;83.53;;;42.47;;
10005;SDS011;5042;42.626;23.382;2023-12-20T09:43:02;89.93;;;45.20;;
10005;SDS011;5042;42.626;23.382;2023-12-20T09:45:30;83.20;;;45.17;;
10005;SDS011;5042;42.626;23.382;2023-12-20T09:47:58;89.23;;;44.67;;
10005;SDS011;5042;42.626;23.382;2023-12-20T09:50:26;97.33;;;44.80;;
10005;SDS011;5042;42.626;23.382;2023-12-20T09:52:55;89.93;;;45.23;;
10005;SDS011;5042;42.626;23.382;2023-12-20T09:55:25;95.00;;;45.97;;
10005;SDS011;5042;42.626;23.382;2023-12-20T09:57:53;75.90;;;41.97;;
10005;SDS011;5042;42.626;23.382;2023-12-20T10:00:20;82.20;;;42.90;;
10005;SDS011;5042;42.626;23.382;2023-12-20T10:02:50;79.93;;;42.00;;
10005;SDS011;5042;42.626;23.382;2023-12-20T10:05:26;72.47;;;40.80;;
10005;SDS011;5042;42.626;23.382;2023-12-20T10:07:55;76.50;;;41.77;;
10005;SDS011;5042;42.626;23.382;2023-12-20T10:10:22;77.57;;;41.43;;
10005;SDS011;5042;42.626;23.382;2023-12-20T10:13:00;70.57;;;41.30;;
10005;SDS011;5042;42.626;23.382;2023-12-20T10:15:28;70.87;;;37.80;;
10005;SDS011;5042;42.626;23.382;2023-12-20T10:17:56;75.30;;;41.87;;
10005;SDS011;5042;42.626;23.382;2023-12-20T10:20:23;62.33;;;34.10;;
10005;SDS011;5042;42.626;23.382;2023-12-20T10:22:51;72.30;;;40.10;;
10005;SDS011;5042;42.626;23.382;2023-12-20T10:25:19;68.33;;;39.80;;
10005;SDS011;5042;42.626;23.382;2023-12-20T10:27:46;65.70;;;31.03;;
10005;SDS011;5042;42.626;23.382;2023-12-20T10:30:13;70.77;;;39.83;;
10005;SDS011;5042;42.626;23.382;2023-12-20T10:32:40;69.77;;;36.63;;
10005;SDS011;5042;42.626;23.382;2023-12-20T10:35:08;69.80;;;38.73;;
10005;SDS011;5042;42.626;23.382;2023-12-20T10:37:35;72.73;;;41.00;;
10005;SDS011;5042;42.626;23.382;2023-12-20T10:40:05;65.50;;;36.20;;
10005;SDS011;5042;42.626;23.382;2023-12-20T10:42:32;67.03;;;36.87;;
10005;SDS011;5042;42.626;23.382;2023-12-20T10:45:01;65.23;;;38.93;;
10005;SDS011;5042;42.626;23.382;2023-12-20T10:47:28;77.87;;;43.50;;
10005;SDS011;5042;42.626;23.382;2023-12-20T10:49:57;75.43;;;41.53;;
10005;SDS011;5042;42.626;23.382;2023-12-20T10:52:27;70.43;;;41.03;;
10005;SDS011;5042;42.626;23.382;2023-12-20T10:54:56;74.27;;;43.50;;
10005;SDS011;5042;42.626;23.382;2023-12-20T10:57:24;75.80;;;45.47;;
10005;SDS011;5042;42.626;23.382;2023-12-20T10:59:55;76.57;;;42.00;;
10005;SDS011;5042;42.626;23.382;2023-12-20T11:02:27;80.37;;;46.80;;
10005;SDS011;5042;42.626;23.382;2023-12-20T11:04:56;82.40;;;48.27;;
10005;SDS011;5042;42.626;23.382;2023-12-20T11:07:34;87.33;;;48.70;;
10005;SDS011;5042;42.626;23.382;2023-12-20T11:10:09;89.20;;;49.30;;
10005;SDS011;5042;42.626;23.382;2023-12-20T11:12:41;92.47;;;49.07;;
10005;SDS011;5042;42.626;23.382;2023-12-20T11:15:13;89.27;;;48.43;;
10005;SDS011;5042;42.626;23.382;2023-12-20T11:17:44;93.60;;;50.03;;
10005;SDS011;5042;42.626;23.382;2023-12-20T11:20:11;75.63;;;43.03;;
10005;SDS011;5042;42.626;23.382;2023-12-20T11:22:38;73.83;;;41.93;;
10005;SDS011;5042;42.626;23.382;2023-12-20T11:25:18;70.37;;;40.93;;
10005;SDS011;5042;42.626;23.382;2023-12-20T11:27:47;66.63;;;41.10;;
10005;SDS011;5042;42.626;23.382;2023-12-20T11:30:42;66.27;;;39.17;;
10005;SDS011;5042;42.626;23.382;2023-12-20T11:33:12;63.87;;;37.40;;
10005;SDS011;5042;42.626;23.382;2023-12-20T11:35:39;61.93;;;37.93;;
10005;SDS011;5042;42.626;23.382;2023-12-20T11:38:07;59.23;;;33.67;;
10005;SDS011;5042;42.626;23.382;2023-12-20T11:40:35;64.47;;;38.30;;
10005;SDS011;5042;42.626;23.382;2023-12-20T11:43:04;65.83;;;35.97;;
10005;SDS011;5042;42.626;23.382;2023-12-20T11:45:31;71.93;;;40.37;;
10005;SDS011;5042;42.626;23.382;2023-12-20T11:48:00;66.77;;;39.30;;
10005;SDS011;5042;42.626;23.382;2023-12-20T11:50:28;74.27;;;40.43;;
10005;SDS011;5042;42.626;23.382;2023-12-20T11:52:56;65.47;;;39.30;;
10005;SDS011;5042;42.626;23.382;2023-12-20T11:55:23;77.13;;;43.57;;
10005;SDS011;5042;42.626;23.382;2023-12-20T11:57:50;70.43;;;38.27;;
10005;SDS011;5042;42.626;23.382;2023-12-20T12:00:20;81.07;;;45.37;;
10005;SDS011;5042;42.626;23.382;2023-12-20T12:02:56;79.13;;;46.03;;
10005;SDS011;5042;42.626;23.382;2023-12-20T12:05:24;79.33;;;42.90;;
10005;SDS011;5042;42.626;23.382;2023-12-20T12:07:52;77.37;;;43.60;;
10005;SDS011;5042;42.626;23.382;2023-12-20T12:10:19;80.57;;;45.20;;
10005;SDS011;5042;42.626;23.382;2023-12-20T12:12:46;85.67;;;47.93;;
10005;SDS011;5042;42.626;23.382;2023-12-20T12:15:14;83.20;;;47.63;;
10005;SDS011;5042;42.626;23.382;2023-12-20T12:17:42;91.30;;;50.23;;
10005;SDS011;5042;42.626;23.382;2023-12-20T12:20:09;87.53;;;52.80;;
10005;SDS011;5042;42.626;23.382;2023-12-20T12:22:37;86.37;;;49.40;;
10005;SDS011;5042;42.626;23.382;2023-12-20T12:25:11;77.43;;;46.87;;
10005;SDS011;5042;42.626;23.382;2023-12-20T12:27:39;71.20;;;44.43;;
10005;SDS011;5042;42.626;23.382;2023-12-20T12:30:07;71.60;;;42.83;;
10005;SDS011;5042;42.626;23.382;2023-12-20T12:32:36;68.73;;;44.63;;
10005;SDS011;5042;42.626;23.382;2023-12-20T12:35:04;60.83;;;40.73;;
10005;SDS011;5042;42.626;23.382;2023-12-20T12:37:33;73.53;;;45.30;;
10005;SDS011;5042;42.626;23.382;2023-12-20T12:40:01;66.40;;;42.67;;
10005;SDS011;5042;42.626;23.382;2023-12-20T12:42:31;63.70;;;38.83;;
10005;SDS011;5042;42.626;23.382;2023-12-20T12:44:58;67.03;;;40.80;;
10005;SDS011;5042;42.626;23.382;2023-12-20T12:47:25;64.43;;;43.07;;
10005;SDS011;5042;42.626;23.382;2023-12-20T12:49:52;62.37;;;41.43;;
10005;SDS011;5042;42.626;23.382;2023-12-20T12:52:20;60.57;;;39.60;;
10005;SDS011;5042;42.626;23.382;2023-12-20T12:54:47;63.77;;;40.47;;
10005;SDS011;5042;42.626;23.382;2023-12-20T12:57:15;64.73;;;41.83;;
10005;SDS011;5042;42.626;23.382;2023-12-20T12:59:42;63.53;;;41.97;;
10005;SDS011;5042;42.626;23.382;2023-12-20T13:02:11;68.37;;;42.00;;
10005;SDS011;5042;42.626;23.382;2023-12-20T13:04:38;62.10;;;37.83;;
10005;SDS011;5042;42.626;23.382;2023-12-20T13:07:05;81.03;;;42.50;;
10005;SDS011;5042;42.626;23.382;2023-12-20T13:09:33;64.33;;;38.20;;
10005;SDS011;5042;42.626;23.382;2023-12-20T13:12:01;64.93;;;35.97;;
10005;SDS011;5042;42.626;23.382;2023-12-20T13:14:29;62.07;;;35.23;;
10005;SDS011;5042;42.626;23.382;2023-12-20T13:16:56;68.90;;;39.77;;
10005;SDS011;5042;42.626;23.382;2023-12-20T13:19:23;74.90;;;41.47;;
10005;SDS011;5042;42.626;23.382;2023-12-20T13:21:49;65.03;;;42.07;;
10005;SDS011;5042;42.626;23.382;2023-12-20T13:24:16;64.07;;;40.30;;
10005;SDS011;5042;42.626;23.382;2023-12-20T13:26:45;73.67;;;44.87;;
10005;SDS011;5042;42.626;23.382;2023-12-20T13:29:12;81.97;;;46.93;;
10005;SDS011;5042;42.626;23.382;2023-12-20T13:31:39;85.50;;;50.03;;
10005;SDS011;5042;42.626;23.382;2023-12-20T13:34:06;81.73;;;47.70;;
10005;SDS011;5042;42.626;23.382;2023-12-20T13:36:33;91.93;;;53.63;;
10005;SDS011;5042;42.626;23.382;2023-12-20T13:39:01;94.97;;;54.47;;
10005;SDS011;5042;42.626;23.382;2023-12-20T13:41:30;98.47;;;57.33;;
10005;SDS011;5042;42.626;23.382;2023-12-20T13:43:58;96.40;;;58.00;;
10005;SDS011;5042;42.626;23.382;2023-12-20T13:46:26;128.87;;;78.53;;
10005;SDS011;5042;42.626;23.382;2023-12-20T13:48:53;138.80;;;85.20;;
10005;SDS011;5042;42.626;23.382;2023-12-20T13:51:20;137.37;;;77.10;;
10005;SDS011;5042;42.626;23.382;2023-12-20T13:53:47;137.90;;;81.53;;
10005;SDS011;5042;42.626;23.382;2023-12-20T13:56:15;140.73;;;84.93;;
10005;SDS011;5042;42.626;23.382;2023-12-20T13:58:42;144.83;;;84.17;;
10005;SDS011;5042;42.626;23.382;2023-12-20T14:03:38;128.00;;;80.03;;
10005;SDS011;5042;42.626;23.382;2023-12-20T14:06:06;139.93;;;83.83;;
10005;SDS011;5042;42.626;23.382;2023-12-20T14:08:33;141.33;;;81.40;;
10005;SDS011;5042;42.626;23.382;2023-12-20T14:11:01;127.00;;;76.23;;
10005;SDS011;5042;42.626;23.382;2023-12-20T14:13:28;126.20;;;74.23;;
10005;SDS011;5042;42.626;23.382;2023-12-20T14:15:55;131.37;;;74.43;;
10005;SDS011;5042;42.626;23.382;2023-12-20T14:18:23;116.93;;;67.47;;
10005;SDS011;5042;42.626;23.382;2023-12-20T14:20:50;122.43;;;67.73;;
10005;SDS011;5042;42.626;23.382;2023-12-20T14:23:17;114.37;;;66.47;;
10005;SDS011;5042;42.626;23.382;2023-12-20T14:25:44;105.53;;;57.30;;
10005;SDS011;5042;42.626;23.382;2023-12-20T14:28:12;103.67;;;58.53;;
10005;SDS011;5042;42.626;23.382;2023-12-20T14:30:39;113.13;;;61.70;;